sensor_id;sensor_type;location;lat;lon;timestamp;temperature;humidity
75648;DHT22;66269;51.466;7.260;2023-03-01T00:01:52;22.30;29.30
75648;DHT22;66269;51.466;7.260;2023-03-01T00:04:17;22.30;29.50
75648;DHT22;66269;51.466;7.260;2023-03-01T00:06:43;22.30;29.40
75648;DHT22;66269;51.466;7.260;2023-03-01T00:09:12;22.20;29.50
75648;DHT22;66269;51.466;7.260;2023-03-01T00:11:38;22.30;29.40
75648;DHT22;66269;51.466;7.260;2023-03-01T00:14:04;22.20;29.50
75648;DHT22;66269;51.466;7.260;2023-03-01T00:16:32;22.20;29.60
75648;DHT22;66269;51.466;7.260;2023-03-01T00:18:59;22.20;29.40
75648;DHT22;66269;51.466;7.260;2023-03-01T00:21:25;22.20;29.30
75648;DHT22;66269;51.466;7.260;2023-03-01T00:23:52;22.20;29.50
75648;DHT22;66269;51.466;7.260;2023-03-01T00:26:19;22.30;29.20
75648;DHT22;66269;51.466;7.260;2023-03-01T00:28:45;22.10;29.40
75648;DHT22;66269;51.466;7.260;2023-03-01T00:31:13;22.20;29.50
75648;DHT22;66269;51.466;7.260;2023-03-01T00:33:39;22.30;29.30
75648;DHT22;66269;51.466;7.260;2023-03-01T00:36:05;22.20;29.30
75648;DHT22;66269;51.466;7.260;2023-03-01T00:38:39;22.20;29.40
75648;DHT22;66269;51.466;7.260;2023-03-01T00:41:09;22.30;29.30
75648;DHT22;66269;51.466;7.260;2023-03-01T00:43:35;22.20;29.50
75648;DHT22;66269;51.466;7.260;2023-03-01T00:46:05;22.20;29.80
75648;DHT22;66269;51.466;7.260;2023-03-01T00:48:32;22.20;29.30
75648;DHT22;66269;51.466;7.260;2023-03-01T00:51:07;22.20;29.30
75648;DHT22;66269;51.466;7.260;2023-03-01T00:53:34;22.20;29.20
75648;DHT22;66269;51.466;7.260;2023-03-01T00:56:00;22.20;29.30
75648;DHT22;66269;51.466;7.260;2023-03-01T00:58:26;22.20;29.30
75648;DHT22;66269;51.466;7.260;2023-03-01T01:00:52;22.30;29.40
75648;DHT22;66269;51.466;7.260;2023-03-01T01:03:21;22.20;29.40
75648;DHT22;66269;51.466;7.260;2023-03-01T01:05:47;22.20;29.40
75648;DHT22;66269;51.466;7.260;2023-03-01T01:08:12;22.10;29.20
75648;DHT22;66269;51.466;7.260;2023-03-01T01:10:38;22.10;29.20
75648;DHT22;66269;51.466;7.260;2023-03-01T01:13:04;22.20;29.50
75648;DHT22;66269;51.466;7.260;2023-03-01T01:15:33;22.20;29.30
75648;DHT22;66269;51.466;7.260;2023-03-01T01:17:59;22.10;29.40
75648;DHT22;66269;51.466;7.260;2023-03-01T01:20:24;22.10;29.70
75648;DHT22;66269;51.466;7.260;2023-03-01T01:22:50;22.20;29.50
75648;DHT22;66269;51.466;7.260;2023-03-01T01:25:16;22.10;29.50
75648;DHT22;66269;51.466;7.260;2023-03-01T01:27:42;22.10;29.50
75648;DHT22;66269;51.466;7.260;2023-03-01T01:30:08;22.10;29.60
75648;DHT22;66269;51.466;7.260;2023-03-01T01:32:33;22.10;29.40
75648;DHT22;66269;51.466;7.260;2023-03-01T01:34:59;22.10;29.20
75648;DHT22;66269;51.466;7.260;2023-03-01T01:37:24;22.10;29.50
75648;DHT22;66269;51.466;7.260;2023-03-01T01:39:57;22.10;29.50
75648;DHT22;66269;51.466;7.260;2023-03-01T01:42:23;22.10;29.60
75648;DHT22;66269;51.466;7.260;2023-03-01T01:45:29;22.10;29.50
75648;DHT22;66269;51.466;7.260;2023-03-01T01:48:00;22.10;29.60
75648;DHT22;66269;51.466;7.260;2023-03-01T01:50:28;22.10;29.70
75648;DHT22;66269;51.466;7.260;2023-03-01T01:53:04;22.10;29.60
75648;DHT22;66269;51.466;7.260;2023-03-01T01:55:31;22.10;29.40
75648;DHT22;66269;51.466;7.260;2023-03-01T01:58:01;22.00;29.50
75648;DHT22;66269;51.466;7.260;2023-03-01T02:00:29;22.10;29.60
75648;DHT22;66269;51.466;7.260;2023-03-01T02:02:57;22.10;29.60
75648;DHT22;66269;51.466;7.260;2023-03-01T02:05:49;22.00;29.60
75648;DHT22;66269;51.466;7.260;2023-03-01T02:08:18;22.10;29.60
75648;DHT22;66269;51.466;7.260;2023-03-01T02:10:45;22.10;29.50
75648;DHT22;66269;51.466;7.260;2023-03-01T02:13:11;22.00;29.80
75648;DHT22;66269;51.466;7.260;2023-03-01T02:15:39;22.10;29.80
75648;DHT22;66269;51.466;7.260;2023-03-01T02:18:06;22.00;29.40
75648;DHT22;66269;51.466;7.260;2023-03-01T02:20:43;22.00;29.60
75648;DHT22;66269;51.466;7.260;2023-03-01T02:23:10;22.10;29.60
75648;DHT22;66269;51.466;7.260;2023-03-01T02:26:02;22.10;29.50
75648;DHT22;66269;51.466;7.260;2023-03-01T02:28:38;22.10;29.60
75648;DHT22;66269;51.466;7.260;2023-03-01T02:31:06;22.00;29.80
75648;DHT22;66269;51.466;7.260;2023-03-01T02:33:51;22.00;29.60
75648;DHT22;66269;51.466;7.260;2023-03-01T02:36:21;22.00;29.50
75648;DHT22;66269;51.466;7.260;2023-03-01T02:38:49;22.00;29.60
75648;DHT22;66269;51.466;7.260;2023-03-01T02:41:17;22.00;29.60
75648;DHT22;66269;51.466;7.260;2023-03-01T02:43:44;22.00;29.80
75648;DHT22;66269;51.466;7.260;2023-03-01T02:46:17;22.00;29.50
75648;DHT22;66269;51.466;7.260;2023-03-01T02:48:55;22.00;29.80
75648;DHT22;66269;51.466;7.260;2023-03-01T02:51:34;21.90;29.30
75648;DHT22;66269;51.466;7.260;2023-03-01T02:56:38;21.90;29.60
75648;DHT22;66269;51.466;7.260;2023-03-01T02:59:04;21.90;29.60
75648;DHT22;66269;51.466;7.260;2023-03-01T03:01:30;22.00;29.60
75648;DHT22;66269;51.466;7.260;2023-03-01T03:04:05;22.00;29.50
75648;DHT22;66269;51.466;7.260;2023-03-01T03:06:30;22.00;29.50
75648;DHT22;66269;51.466;7.260;2023-03-01T03:08:59;21.90;29.40
75648;DHT22;66269;51.466;7.260;2023-03-01T03:11:25;22.00;29.50
75648;DHT22;66269;51.466;7.260;2023-03-01T03:13:50;22.00;29.40
75648;DHT22;66269;51.466;7.260;2023-03-01T03:16:17;22.00;29.50
75648;DHT22;66269;51.466;7.260;2023-03-01T03:18:43;21.90;29.60
75648;DHT22;66269;51.466;7.260;2023-03-01T03:21:11;21.90;29.60
75648;DHT22;66269;51.466;7.260;2023-03-01T03:23:37;22.00;29.60
75648;DHT22;66269;51.466;7.260;2023-03-01T03:26:03;22.00;29.70
75648;DHT22;66269;51.466;7.260;2023-03-01T03:28:33;22.00;29.60
75648;DHT22;66269;51.466;7.260;2023-03-01T03:30:59;21.90;29.70
75648;DHT22;66269;51.466;7.260;2023-03-01T03:33:29;21.90;29.60
75648;DHT22;66269;51.466;7.260;2023-03-01T03:35:55;21.90;29.50
75648;DHT22;66269;51.466;7.260;2023-03-01T03:38:20;22.00;29.80
75648;DHT22;66269;51.466;7.260;2023-03-01T03:40:59;21.90;29.60
75648;DHT22;66269;51.466;7.260;2023-03-01T03:43:30;21.90;29.40
75648;DHT22;66269;51.466;7.260;2023-03-01T03:45:56;21.90;29.60
75648;DHT22;66269;51.466;7.260;2023-03-01T03:48:25;21.90;29.60
75648;DHT22;66269;51.466;7.260;2023-03-01T03:50:53;21.80;29.70
75648;DHT22;66269;51.466;7.260;2023-03-01T03:53:20;21.90;29.50
75648;DHT22;66269;51.466;7.260;2023-03-01T03:55:46;21.80;29.30
75648;DHT22;66269;51.466;7.260;2023-03-01T03:58:15;21.80;29.60
75648;DHT22;66269;51.466;7.260;2023-03-01T04:00:43;21.90;29.30
75648;DHT22;66269;51.466;7.260;2023-03-01T04:03:10;21.80;29.70
75648;DHT22;66269;51.466;7.260;2023-03-01T04:05:37;21.90;29.50
75648;DHT22;66269;51.466;7.260;2023-03-01T04:08:03;21.90;29.60
75648;DHT22;66269;51.466;7.260;2023-03-01T04:10:35;21.90;29.80
75648;DHT22;66269;51.466;7.260;2023-03-01T04:13:02;21.90;29.80
75648;DHT22;66269;51.466;7.260;2023-03-01T04:15:28;21.90;29.80
75648;DHT22;66269;51.466;7.260;2023-03-01T04:17:55;21.90;29.70
75648;DHT22;66269;51.466;7.260;2023-03-01T04:20:24;21.90;29.60
75648;DHT22;66269;51.466;7.260;2023-03-01T04:25:37;21.90;29.90
75648;DHT22;66269;51.466;7.260;2023-03-01T04:28:02;21.80;29.50
75648;DHT22;66269;51.466;7.260;2023-03-01T04:30:28;21.90;29.80
75648;DHT22;66269;51.466;7.260;2023-03-01T04:32:54;21.90;29.70
75648;DHT22;66269;51.466;7.260;2023-03-01T04:35:19;21.90;29.90
75648;DHT22;66269;51.466;7.260;2023-03-01T04:37:45;21.80;29.70
75648;DHT22;66269;51.466;7.260;2023-03-01T04:40:11;21.80;29.60
75648;DHT22;66269;51.466;7.260;2023-03-01T04:42:42;21.80;29.70
75648;DHT22;66269;51.466;7.260;2023-03-01T04:45:08;21.70;29.70
75648;DHT22;66269;51.466;7.260;2023-03-01T04:47:40;21.80;30.00
75648;DHT22;66269;51.466;7.260;2023-03-01T04:50:06;21.80;29.60
75648;DHT22;66269;51.466;7.260;2023-03-01T04:52:32;21.80;29.60
75648;DHT22;66269;51.466;7.260;2023-03-01T04:54:58;21.80;29.80
75648;DHT22;66269;51.466;7.260;2023-03-01T04:57:23;21.70;29.60
75648;DHT22;66269;51.466;7.260;2023-03-01T04:59:49;21.80;29.80
75648;DHT22;66269;51.466;7.260;2023-03-01T05:02:14;21.80;29.80
75648;DHT22;66269;51.466;7.260;2023-03-01T05:04:40;21.80;29.70
75648;DHT22;66269;51.466;7.260;2023-03-01T05:07:05;21.80;29.70
75648;DHT22;66269;51.466;7.260;2023-03-01T05:09:31;21.70;29.60
75648;DHT22;66269;51.466;7.260;2023-03-01T05:11:56;21.80;29.80
75648;DHT22;66269;51.466;7.260;2023-03-01T05:14:22;21.80;29.40
75648;DHT22;66269;51.466;7.260;2023-03-01T05:16:48;21.70;29.70
75648;DHT22;66269;51.466;7.260;2023-03-01T05:19:13;21.70;29.60
75648;DHT22;66269;51.466;7.260;2023-03-01T05:21:41;21.80;29.70
75648;DHT22;66269;51.466;7.260;2023-03-01T05:24:25;21.70;29.60
75648;DHT22;66269;51.466;7.260;2023-03-01T05:26:52;21.80;29.70
75648;DHT22;66269;51.466;7.260;2023-03-01T05:29:19;21.70;29.60
75648;DHT22;66269;51.466;7.260;2023-03-01T05:31:51;21.80;29.70
75648;DHT22;66269;51.466;7.260;2023-03-01T05:34:17;21.80;30.00
75648;DHT22;66269;51.466;7.260;2023-03-01T05:36:42;21.70;29.70
75648;DHT22;66269;51.466;7.260;2023-03-01T05:39:08;21.70;29.60
75648;DHT22;66269;51.466;7.260;2023-03-01T05:41:33;21.70;29.60
75648;DHT22;66269;51.466;7.260;2023-03-01T05:43:59;21.80;29.80
75648;DHT22;66269;51.466;7.260;2023-03-01T05:46:24;21.70;29.80
75648;DHT22;66269;51.466;7.260;2023-03-01T05:48:50;21.70;29.60
75648;DHT22;66269;51.466;7.260;2023-03-01T05:51:15;21.80;29.60
75648;DHT22;66269;51.466;7.260;2023-03-01T05:53:41;21.70;29.60
75648;DHT22;66269;51.466;7.260;2023-03-01T05:56:07;21.70;29.70
75648;DHT22;66269;51.466;7.260;2023-03-01T05:58:32;21.70;29.80
75648;DHT22;66269;51.466;7.260;2023-03-01T06:00:58;21.70;29.70
75648;DHT22;66269;51.466;7.260;2023-03-01T06:03:23;21.70;29.70
75648;DHT22;66269;51.466;7.260;2023-03-01T06:05:49;21.70;29.80
75648;DHT22;66269;51.466;7.260;2023-03-01T06:08:14;21.70;29.80
75648;DHT22;66269;51.466;7.260;2023-03-01T06:10:40;21.70;29.50
75648;DHT22;66269;51.466;7.260;2023-03-01T06:13:06;21.70;29.50
75648;DHT22;66269;51.466;7.260;2023-03-01T06:15:31;21.60;29.40
75648;DHT22;66269;51.466;7.260;2023-03-01T06:17:57;21.50;29.40
75648;DHT22;66269;51.466;7.260;2023-03-01T06:20:24;21.40;29.30
75648;DHT22;66269;51.466;7.260;2023-03-01T06:22:50;21.50;29.30
75648;DHT22;66269;51.466;7.260;2023-03-01T06:25:19;21.40;29.50
75648;DHT22;66269;51.466;7.260;2023-03-01T06:27:45;21.50;29.40
75648;DHT22;66269;51.466;7.260;2023-03-01T06:30:13;21.50;29.20
75648;DHT22;66269;51.466;7.260;2023-03-01T06:32:40;21.60;29.30
75648;DHT22;66269;51.466;7.260;2023-03-01T06:35:09;21.70;29.20
75648;DHT22;66269;51.466;7.260;2023-03-01T06:37:35;22.00;29.30
75648;DHT22;66269;51.466;7.260;2023-03-01T06:40:03;22.10;28.90
75648;DHT22;66269;51.466;7.260;2023-03-01T06:42:40;22.30;28.70
75648;DHT22;66269;51.466;7.260;2023-03-01T06:45:07;22.60;28.50
75648;DHT22;66269;51.466;7.260;2023-03-01T06:47:35;22.80;28.40
75648;DHT22;66269;51.466;7.260;2023-03-01T06:50:02;22.80;28.50
75648;DHT22;66269;51.466;7.260;2023-03-01T06:52:28;22.70;28.20
75648;DHT22;66269;51.466;7.260;2023-03-01T06:54:54;22.60;28.40
75648;DHT22;66269;51.466;7.260;2023-03-01T06:57:20;22.50;28.20
75648;DHT22;66269;51.466;7.260;2023-03-01T06:59:47;22.40;28.50
75648;DHT22;66269;51.466;7.260;2023-03-01T07:02:13;22.40;28.50
75648;DHT22;66269;51.466;7.260;2023-03-01T07:04:39;22.40;28.60
75648;DHT22;66269;51.466;7.260;2023-03-01T07:07:05;22.40;28.60
75648;DHT22;66269;51.466;7.260;2023-03-01T07:09:30;22.30;28.70
75648;DHT22;66269;51.466;7.260;2023-03-01T07:11:57;22.40;28.70
75648;DHT22;66269;51.466;7.260;2023-03-01T07:14:23;22.40;28.80
75648;DHT22;66269;51.466;7.260;2023-03-01T07:16:52;22.40;28.50
75648;DHT22;66269;51.466;7.260;2023-03-01T07:19:17;22.50;28.50
75648;DHT22;66269;51.466;7.260;2023-03-01T07:21:43;22.40;28.40
75648;DHT22;66269;51.466;7.260;2023-03-01T07:24:09;22.50;28.40
75648;DHT22;66269;51.466;7.260;2023-03-01T07:26:35;22.50;28.40
75648;DHT22;66269;51.466;7.260;2023-03-01T07:29:02;22.50;28.40
75648;DHT22;66269;51.466;7.260;2023-03-01T07:31:28;22.50;28.50
75648;DHT22;66269;51.466;7.260;2023-03-01T07:33:54;22.60;28.30
75648;DHT22;66269;51.466;7.260;2023-03-01T07:36:20;22.60;28.20
75648;DHT22;66269;51.466;7.260;2023-03-01T07:38:46;22.70;28.40
75648;DHT22;66269;51.466;7.260;2023-03-01T07:41:11;22.60;28.30
75648;DHT22;66269;51.466;7.260;2023-03-01T07:43:37;22.60;27.90
75648;DHT22;66269;51.466;7.260;2023-03-01T07:46:03;22.70;28.30
75648;DHT22;66269;51.466;7.260;2023-03-01T07:48:30;22.70;28.30
75648;DHT22;66269;51.466;7.260;2023-03-01T07:51:04;22.70;27.80
75648;DHT22;66269;51.466;7.260;2023-03-01T07:53:30;22.70;28.10
75648;DHT22;66269;51.466;7.260;2023-03-01T07:56:03;22.80;28.00
75648;DHT22;66269;51.466;7.260;2023-03-01T07:58:29;22.70;28.20
75648;DHT22;66269;51.466;7.260;2023-03-01T08:00:55;22.80;28.30
75648;DHT22;66269;51.466;7.260;2023-03-01T08:03:20;22.90;28.30
75648;DHT22;66269;51.466;7.260;2023-03-01T08:05:46;22.80;27.90
75648;DHT22;66269;51.466;7.260;2023-03-01T08:08:11;22.90;28.40
75648;DHT22;66269;51.466;7.260;2023-03-01T08:10:37;23.00;28.10
75648;DHT22;66269;51.466;7.260;2023-03-01T08:13:02;23.00;28.40
75648;DHT22;66269;51.466;7.260;2023-03-01T08:15:28;22.90;28.10
75648;DHT22;66269;51.466;7.260;2023-03-01T08:17:53;23.00;28.00
75648;DHT22;66269;51.466;7.260;2023-03-01T08:20:19;23.00;28.30
75648;DHT22;66269;51.466;7.260;2023-03-01T08:22:45;23.00;28.00
75648;DHT22;66269;51.466;7.260;2023-03-01T08:25:10;23.10;28.20
75648;DHT22;66269;51.466;7.260;2023-03-01T08:27:38;23.00;28.20
75648;DHT22;66269;51.466;7.260;2023-03-01T08:30:05;23.10;28.30
75648;DHT22;66269;51.466;7.260;2023-03-01T08:32:35;23.10;28.20
75648;DHT22;66269;51.466;7.260;2023-03-01T08:35:01;23.10;28.30
75648;DHT22;66269;51.466;7.260;2023-03-01T08:37:27;23.10;28.40
75648;DHT22;66269;51.466;7.260;2023-03-01T08:39:56;23.00;28.30
75648;DHT22;66269;51.466;7.260;2023-03-01T08:42:21;23.10;28.40
75648;DHT22;66269;51.466;7.260;2023-03-01T08:44:47;23.10;28.10
75648;DHT22;66269;51.466;7.260;2023-03-01T08:47:13;23.10;28.40
75648;DHT22;66269;51.466;7.260;2023-03-01T08:49:39;23.00;28.20
75648;DHT22;66269;51.466;7.260;2023-03-01T08:52:04;23.10;28.00
75648;DHT22;66269;51.466;7.260;2023-03-01T08:54:30;23.00;28.40
75648;DHT22;66269;51.466;7.260;2023-03-01T08:56:55;23.00;28.50
75648;DHT22;66269;51.466;7.260;2023-03-01T08:59:25;23.00;28.20
75648;DHT22;66269;51.466;7.260;2023-03-01T09:01:51;23.10;28.20
75648;DHT22;66269;51.466;7.260;2023-03-01T09:04:17;23.10;28.20
75648;DHT22;66269;51.466;7.260;2023-03-01T09:06:42;23.10;28.40
75648;DHT22;66269;51.466;7.260;2023-03-01T09:09:13;23.00;28.50
75648;DHT22;66269;51.466;7.260;2023-03-01T09:11:40;23.10;28.10
75648;DHT22;66269;51.466;7.260;2023-03-01T09:14:06;23.10;28.30
75648;DHT22;66269;51.466;7.260;2023-03-01T09:16:33;23.10;28.60
75648;DHT22;66269;51.466;7.260;2023-03-01T09:19:01;23.10;28.40
75648;DHT22;66269;51.466;7.260;2023-03-01T09:21:28;23.10;28.20
75648;DHT22;66269;51.466;7.260;2023-03-01T09:23:56;23.20;28.50
75648;DHT22;66269;51.466;7.260;2023-03-01T09:26:23;23.00;28.30
75648;DHT22;66269;51.466;7.260;2023-03-01T09:28:50;23.10;28.40
75648;DHT22;66269;51.466;7.260;2023-03-01T09:31:18;23.10;28.20
75648;DHT22;66269;51.466;7.260;2023-03-01T09:33:47;23.10;28.30
75648;DHT22;66269;51.466;7.260;2023-03-01T09:36:18;23.10;28.40
75648;DHT22;66269;51.466;7.260;2023-03-01T09:38:44;23.00;28.20
75648;DHT22;66269;51.466;7.260;2023-03-01T09:41:36;23.00;28.50
75648;DHT22;66269;51.466;7.260;2023-03-01T09:46:53;23.00;28.50
75648;DHT22;66269;51.466;7.260;2023-03-01T09:49:24;23.00;28.00
75648;DHT22;66269;51.466;7.260;2023-03-01T09:52:19;23.00;28.40
75648;DHT22;66269;51.466;7.260;2023-03-01T09:54:41;23.00;28.40
75648;DHT22;66269;51.466;7.260;2023-03-01T09:57:19;23.00;28.30
75648;DHT22;66269;51.466;7.260;2023-03-01T09:59:52;23.00;28.40
75648;DHT22;66269;51.466;7.260;2023-03-01T10:02:38;23.10;28.20
75648;DHT22;66269;51.466;7.260;2023-03-01T10:05:33;23.00;27.90
75648;DHT22;66269;51.466;7.260;2023-03-01T10:10:47;23.10;28.10
75648;DHT22;66269;51.466;7.260;2023-03-01T10:13:21;23.10;28.10
75648;DHT22;66269;51.466;7.260;2023-03-01T10:15:59;23.00;27.80
75648;DHT22;66269;51.466;7.260;2023-03-01T10:18:27;23.10;28.00
75648;DHT22;66269;51.466;7.260;2023-03-01T10:21:02;23.10;28.10
75648;DHT22;66269;51.466;7.260;2023-03-01T10:23:31;23.00;28.20
75648;DHT22;66269;51.466;7.260;2023-03-01T10:29:08;23.00;28.00
75648;DHT22;66269;51.466;7.260;2023-03-01T10:31:38;23.00;28.20
75648;DHT22;66269;51.466;7.260;2023-03-01T10:34:16;23.00;28.20
75648;DHT22;66269;51.466;7.260;2023-03-01T10:36:45;23.00;28.00
75648;DHT22;66269;51.466;7.260;2023-03-01T10:39:18;23.00;28.20
75648;DHT22;66269;51.466;7.260;2023-03-01T10:41:59;22.90;28.00
75648;DHT22;66269;51.466;7.260;2023-03-01T10:44:37;22.90;28.20
75648;DHT22;66269;51.466;7.260;2023-03-01T10:47:03;23.00;28.00
75648;DHT22;66269;51.466;7.260;2023-03-01T10:49:29;22.90;28.00
75648;DHT22;66269;51.466;7.260;2023-03-01T10:51:55;22.90;28.10
75648;DHT22;66269;51.466;7.260;2023-03-01T10:54:29;22.90;28.20
75648;DHT22;66269;51.466;7.260;2023-03-01T10:57:00;22.90;28.20
75648;DHT22;66269;51.466;7.260;2023-03-01T10:59:34;22.90;28.00
75648;DHT22;66269;51.466;7.260;2023-03-01T11:04:35;22.90;27.90
75648;DHT22;66269;51.466;7.260;2023-03-01T11:07:01;22.90;28.00
75648;DHT22;66269;51.466;7.260;2023-03-01T11:09:32;22.80;28.00
75648;DHT22;66269;51.466;7.260;2023-03-01T11:12:11;22.90;28.20
75648;DHT22;66269;51.466;7.260;2023-03-01T11:14:53;22.90;28.00
75648;DHT22;66269;51.466;7.260;2023-03-01T11:17:27;22.90;28.10
75648;DHT22;66269;51.466;7.260;2023-03-01T11:22:55;22.90;27.90
75648;DHT22;66269;51.466;7.260;2023-03-01T11:25:25;22.90;28.00
75648;DHT22;66269;51.466;7.260;2023-03-01T11:27:53;22.90;27.90
75648;DHT22;66269;51.466;7.260;2023-03-01T11:30:42;22.90;28.10
75648;DHT22;66269;51.466;7.260;2023-03-01T11:33:24;23.00;28.20
75648;DHT22;66269;51.466;7.260;2023-03-01T11:36:05;23.00;28.10
75648;DHT22;66269;51.466;7.260;2023-03-01T11:38:34;22.90;28.10
75648;DHT22;66269;51.466;7.260;2023-03-01T11:41:13;23.00;27.80
75648;DHT22;66269;51.466;7.260;2023-03-01T11:49:02;23.00;28.10
75648;DHT22;66269;51.466;7.260;2023-03-01T11:51:46;23.00;27.80
75648;DHT22;66269;51.466;7.260;2023-03-01T11:57:07;23.10;28.10
75648;DHT22;66269;51.466;7.260;2023-03-01T12:22:32;23.10;28.10
75648;DHT22;66269;51.466;7.260;2023-03-01T12:25:10;23.10;28.10
75648;DHT22;66269;51.466;7.260;2023-03-01T12:28:44;23.10;27.90
75648;DHT22;66269;51.466;7.260;2023-03-01T12:31:09;23.20;27.90
75648;DHT22;66269;51.466;7.260;2023-03-01T12:39:57;23.20;27.90
75648;DHT22;66269;51.466;7.260;2023-03-01T12:45:44;23.30;27.70
75648;DHT22;66269;51.466;7.260;2023-03-01T12:50:59;23.20;28.10
75648;DHT22;66269;51.466;7.260;2023-03-01T12:53:36;23.20;28.10
75648;DHT22;66269;51.466;7.260;2023-03-01T12:56:10;23.20;27.90
75648;DHT22;66269;51.466;7.260;2023-03-01T13:01:26;23.30;27.90
75648;DHT22;66269;51.466;7.260;2023-03-01T13:09:04;23.40;28.00
75648;DHT22;66269;51.466;7.260;2023-03-01T13:11:32;23.20;27.90
75648;DHT22;66269;51.466;7.260;2023-03-01T13:16:45;23.40;27.90
75648;DHT22;66269;51.466;7.260;2023-03-01T13:19:22;23.40;27.70
75648;DHT22;66269;51.466;7.260;2023-03-01T13:21:50;23.40;27.80
75648;DHT22;66269;51.466;7.260;2023-03-01T13:24:26;23.40;27.60
75648;DHT22;66269;51.466;7.260;2023-03-01T13:27:10;23.40;27.70
75648;DHT22;66269;51.466;7.260;2023-03-01T13:29:47;23.50;27.60
75648;DHT22;66269;51.466;7.260;2023-03-01T13:32:31;23.50;27.40
75648;DHT22;66269;51.466;7.260;2023-03-01T13:37:43;23.50;27.40
75648;DHT22;66269;51.466;7.260;2023-03-01T13:42:48;23.50;27.30
75648;DHT22;66269;51.466;7.260;2023-03-01T13:45:38;23.50;27.00
75648;DHT22;66269;51.466;7.260;2023-03-01T13:48:11;23.60;27.20
75648;DHT22;66269;51.466;7.260;2023-03-01T13:50:47;23.60;27.50
75648;DHT22;66269;51.466;7.260;2023-03-01T13:53:17;23.70;26.70
75648;DHT22;66269;51.466;7.260;2023-03-01T13:55:52;23.70;26.60
75648;DHT22;66269;51.466;7.260;2023-03-01T13:58:25;23.70;26.70
75648;DHT22;66269;51.466;7.260;2023-03-01T14:01:00;23.80;26.90
75648;DHT22;66269;51.466;7.260;2023-03-01T14:03:26;23.70;26.90
75648;DHT22;66269;51.466;7.260;2023-03-01T14:06:20;23.80;26.50
75648;DHT22;66269;51.466;7.260;2023-03-01T14:08:49;23.80;26.60
75648;DHT22;66269;51.466;7.260;2023-03-01T14:11:29;23.90;26.60
75648;DHT22;66269;51.466;7.260;2023-03-01T14:19:30;23.90;26.50
75648;DHT22;66269;51.466;7.260;2023-03-01T14:22:21;23.90;26.40
75648;DHT22;66269;51.466;7.260;2023-03-01T14:24:56;24.00;26.50
75648;DHT22;66269;51.466;7.260;2023-03-01T14:27:26;24.00;26.60
75648;DHT22;66269;51.466;7.260;2023-03-01T14:30:00;24.00;26.40
75648;DHT22;66269;51.466;7.260;2023-03-01T14:32:29;24.10;26.60
75648;DHT22;66269;51.466;7.260;2023-03-01T14:34:56;24.00;26.30
75648;DHT22;66269;51.466;7.260;2023-03-01T14:37:42;24.10;26.40
75648;DHT22;66269;51.466;7.260;2023-03-01T14:40:21;24.10;26.40
75648;DHT22;66269;51.466;7.260;2023-03-01T14:42:47;24.10;26.10
75648;DHT22;66269;51.466;7.260;2023-03-01T14:45:13;24.20;26.30
75648;DHT22;66269;51.466;7.260;2023-03-01T14:47:39;24.30;26.10
75648;DHT22;66269;51.466;7.260;2023-03-01T14:50:24;24.20;25.90
75648;DHT22;66269;51.466;7.260;2023-03-01T14:52:53;24.20;26.20
75648;DHT22;66269;51.466;7.260;2023-03-01T14:55:24;24.20;26.10
75648;DHT22;66269;51.466;7.260;2023-03-01T14:57:51;24.30;25.90
75648;DHT22;66269;51.466;7.260;2023-03-01T15:00:23;24.20;25.90
75648;DHT22;66269;51.466;7.260;2023-03-01T15:02:51;24.30;25.90
75648;DHT22;66269;51.466;7.260;2023-03-01T15:05:29;24.40;25.90
75648;DHT22;66269;51.466;7.260;2023-03-01T15:07:57;24.40;26.10
75648;DHT22;66269;51.466;7.260;2023-03-01T15:10:32;24.30;26.10
75648;DHT22;66269;51.466;7.260;2023-03-01T15:13:22;24.40;25.80
75648;DHT22;66269;51.466;7.260;2023-03-01T15:15:48;24.40;25.90
75648;DHT22;66269;51.466;7.260;2023-03-01T15:18:16;24.40;26.10
75648;DHT22;66269;51.466;7.260;2023-03-01T15:20:43;24.40;25.60
75648;DHT22;66269;51.466;7.260;2023-03-01T15:23:25;24.40;25.70
75648;DHT22;66269;51.466;7.260;2023-03-01T15:25:52;24.50;25.90
75648;DHT22;66269;51.466;7.260;2023-03-01T15:28:31;24.40;25.60
75648;DHT22;66269;51.466;7.260;2023-03-01T15:31:02;24.40;25.90
75648;DHT22;66269;51.466;7.260;2023-03-01T15:33:32;24.50;25.90
75648;DHT22;66269;51.466;7.260;2023-03-01T15:36:01;24.50;25.80
75648;DHT22;66269;51.466;7.260;2023-03-01T15:38:28;24.50;25.80
75648;DHT22;66269;51.466;7.260;2023-03-01T15:40:55;24.50;25.80
75648;DHT22;66269;51.466;7.260;2023-03-01T15:43:42;24.50;25.70
75648;DHT22;66269;51.466;7.260;2023-03-01T15:48:52;24.60;25.60
75648;DHT22;66269;51.466;7.260;2023-03-01T15:51:22;24.60;25.20
75648;DHT22;66269;51.466;7.260;2023-03-01T15:53:52;24.60;25.50
75648;DHT22;66269;51.466;7.260;2023-03-01T15:56:18;24.60;25.40
75648;DHT22;66269;51.466;7.260;2023-03-01T15:58:44;24.60;25.40
75648;DHT22;66269;51.466;7.260;2023-03-01T16:01:14;24.60;25.30
75648;DHT22;66269;51.466;7.260;2023-03-01T16:03:42;24.60;25.50
75648;DHT22;66269;51.466;7.260;2023-03-01T16:06:09;24.50;25.60
75648;DHT22;66269;51.466;7.260;2023-03-01T16:08:35;24.50;25.40
75648;DHT22;66269;51.466;7.260;2023-03-01T16:11:01;24.50;25.40
75648;DHT22;66269;51.466;7.260;2023-03-01T16:13:30;24.40;25.40
75648;DHT22;66269;51.466;7.260;2023-03-01T16:15:57;24.40;25.60
75648;DHT22;66269;51.466;7.260;2023-03-01T16:18:22;24.30;25.30
75648;DHT22;66269;51.466;7.260;2023-03-01T16:20:48;24.30;25.50
75648;DHT22;66269;51.466;7.260;2023-03-01T16:23:14;24.20;25.70
75648;DHT22;66269;51.466;7.260;2023-03-01T16:25:40;24.30;25.40
75648;DHT22;66269;51.466;7.260;2023-03-01T16:28:06;24.30;25.70
75648;DHT22;66269;51.466;7.260;2023-03-01T16:30:35;24.20;25.60
75648;DHT22;66269;51.466;7.260;2023-03-01T16:33:01;24.20;25.70
75648;DHT22;66269;51.466;7.260;2023-03-01T16:35:27;24.20;25.70
75648;DHT22;66269;51.466;7.260;2023-03-01T16:37:52;24.10;25.80
75648;DHT22;66269;51.466;7.260;2023-03-01T16:40:20;24.10;25.60
75648;DHT22;66269;51.466;7.260;2023-03-01T16:42:47;24.10;25.70
75648;DHT22;66269;51.466;7.260;2023-03-01T16:45:13;24.10;25.80
75648;DHT22;66269;51.466;7.260;2023-03-01T16:47:38;24.10;25.70
75648;DHT22;66269;51.466;7.260;2023-03-01T16:50:04;24.10;25.70
75648;DHT22;66269;51.466;7.260;2023-03-01T16:52:30;24.00;25.70
75648;DHT22;66269;51.466;7.260;2023-03-01T16:54:55;24.00;25.80
75648;DHT22;66269;51.466;7.260;2023-03-01T16:57:21;24.00;25.70
75648;DHT22;66269;51.466;7.260;2023-03-01T16:59:46;23.90;25.80
75648;DHT22;66269;51.466;7.260;2023-03-01T17:02:13;23.90;25.80
75648;DHT22;66269;51.466;7.260;2023-03-01T17:04:40;23.90;25.70
75648;DHT22;66269;51.466;7.260;2023-03-01T17:07:06;23.90;25.80
75648;DHT22;66269;51.466;7.260;2023-03-01T17:09:36;23.90;25.90
75648;DHT22;66269;51.466;7.260;2023-03-01T17:12:03;24.10;25.60